createdAt,value
2023-05-08T00:01:58.303Z,64.60
2023-05-08T00:04:25.266Z,64.80
2023-05-08T00:06:53.007Z,64.80
2023-05-08T00:09:20.693Z,64.90
2023-05-08T00:11:47.664Z,64.80
2023-05-08T00:14:15.403Z,64.70
2023-05-08T00:16:42.308Z,64.60
2023-05-08T00:19:09.223Z,64.50
2023-05-08T00:21:36.042Z,64.50
2023-05-08T00:24:02.907Z,64.50
2023-05-08T00:26:29.853Z,64.50
2023-05-08T00:28:56.740Z,64.30
2023-05-08T00:31:24.111Z,64.20
2023-05-08T00:33:51.031Z,64.10
2023-05-08T00:36:18.085Z,64.10
2023-05-08T00:38:44.920Z,64.10
2023-05-08T00:41:12.081Z,64.10
2023-05-08T00:43:39.960Z,64.20
2023-05-08T00:46:06.917Z,64.20
2023-05-08T00:48:36.312Z,64.20
2023-05-08T00:51:07.396Z,64.20
2023-05-08T00:53:40.744Z,64.10
2023-05-08T00:56:12.732Z,64.10
2023-05-08T00:58:42.099Z,64.00
2023-05-08T01:01:09.630Z,64.40
2023-05-08T01:03:38.143Z,64.60
2023-05-08T01:06:06.650Z,64.60
2023-05-08T01:08:33.884Z,64.60
2023-05-08T01:11:52.532Z,65.20
2023-05-08T01:14:53.238Z,63.30
2023-05-08T01:18:12.481Z,63.40
2023-05-08T01:21:12.225Z,63.30
2023-05-08T01:24:27.355Z,64.30
2023-05-08T01:27:35.202Z,63.70
2023-05-08T01:30:23.419Z,63.40
2023-05-08T01:33:34.691Z,64.80
2023-05-08T01:36:36.943Z,63.60
2023-05-08T01:39:32.526Z,64.40
2023-05-08T01:42:07.922Z,64.90
2023-05-08T01:44:48.921Z,65.20
2023-05-08T01:47:19.052Z,64.80
2023-05-08T01:49:55.862Z,65.40
2023-05-08T01:52:35.466Z,65.40
2023-05-08T01:55:10.108Z,65.10
2023-05-08T01:57:46.734Z,65.50
2023-05-08T02:00:18.730Z,65.40
2023-05-08T02:02:47.896Z,65.40
2023-05-08T02:05:17.614Z,65.50
2023-05-08T02:07:47.393Z,65.20
2023-05-08T02:10:16.416Z,65.00
2023-05-08T02:12:45.289Z,65.10
2023-05-08T02:15:16.084Z,65.10
2023-05-08T02:17:43.929Z,65.00
2023-05-08T02:20:15.091Z,64.00
2023-05-08T02:22:51.386Z,65.30
2023-05-08T02:25:19.600Z,64.90
2023-05-08T02:27:49.498Z,65.50
2023-05-08T02:30:17.851Z,65.40
2023-05-08T02:32:47.782Z,65.60
2023-05-08T02:35:18.826Z,65.50
2023-05-08T02:37:53.585Z,65.30
2023-05-08T02:40:24.643Z,65.10
2023-05-08T02:42:51.836Z,65.40
2023-05-08T02:45:19.476Z,65.30
2023-05-08T02:48:12.091Z,65.10
2023-05-08T02:50:57.390Z,63.50
2023-05-08T02:53:37.459Z,63.60
2023-05-08T02:56:36.411Z,64.70
2023-05-08T02:59:35.842Z,63.50
2023-05-08T03:02:35.477Z,63.50
2023-05-08T03:05:14.899Z,64.10
2023-05-08T03:07:45.210Z,64.70
2023-05-08T03:10:16.096Z,65.20
2023-05-08T03:12:52.028Z,65.30
2023-05-08T03:15:27.367Z,65.00
2023-05-08T03:17:58.720Z,65.20
2023-05-08T03:20:32.254Z,65.40
2023-05-08T03:23:00.581Z,65.50
2023-05-08T03:25:29.962Z,65.60
2023-05-08T03:27:59.354Z,65.70
2023-05-08T03:30:28.065Z,65.70
2023-05-08T03:32:58.821Z,65.80
2023-05-08T03:35:27.904Z,65.80
2023-05-08T03:37:54.900Z,64.60
2023-05-08T03:40:22.243Z,65.80
2023-05-08T03:42:50.422Z,65.70
2023-05-08T03:45:18.945Z,65.80
2023-05-08T03:47:47.935Z,65.80
2023-05-08T03:50:15.985Z,65.70
2023-05-08T03:52:43.428Z,65.70
2023-05-08T03:55:10.547Z,65.70
2023-05-08T03:57:58.711Z,65.70
2023-05-08T04:00:43.487Z,64.40
2023-05-08T04:03:43.884Z,65.00
2023-05-08T04:06:35.631Z,64.80
2023-05-08T04:09:55.206Z,65.10
2023-05-08T04:13:00.048Z,64.70
2023-05-08T04:15:31.513Z,64.20
2023-05-08T04:18:09.716Z,65.30
2023-05-08T04:20:46.325Z,64.60
2023-05-08T04:23:19.869Z,65.40
2023-05-08T04:25:49.428Z,65.50
2023-05-08T04:28:18.328Z,65.70
2023-05-08T04:30:45.555Z,65.60
2023-05-08T04:33:14.450Z,66.00
2023-05-08T04:35:41.636Z,65.40
2023-05-08T04:38:08.505Z,65.40
2023-05-08T04:40:35.325Z,65.40
2023-05-08T04:43:02.280Z,65.30
2023-05-08T04:45:29.125Z,65.30
2023-05-08T04:47:56.035Z,65.20
2023-05-08T04:50:22.976Z,65.20
2023-05-08T04:52:49.780Z,65.20
2023-05-08T04:55:16.779Z,65.30
2023-05-08T04:57:44.539Z,65.40
2023-05-08T05:00:12.203Z,65.30
2023-05-08T05:02:39.158Z,65.30
2023-05-08T05:05:06.808Z,65.40
2023-05-08T05:07:33.642Z,65.30
2023-05-08T05:10:00.884Z,65.40
2023-05-08T05:12:27.820Z,65.50
2023-05-08T05:14:54.649Z,65.60
2023-05-08T05:17:21.693Z,65.60
2023-05-08T05:19:49.145Z,65.70
2023-05-08T05:22:16.709Z,65.90
2023-05-08T05:24:43.620Z,65.80
2023-05-08T05:27:10.485Z,65.60
2023-05-08T05:29:37.282Z,65.60
2023-05-08T05:32:04.290Z,65.50
2023-05-08T05:34:31.075Z,65.70
2023-05-08T05:36:57.920Z,65.90
2023-05-08T05:39:24.816Z,66.00
2023-05-08T05:41:51.632Z,66.00
2023-05-08T05:44:18.745Z,66.00
2023-05-08T05:46:45.598Z,66.10
2023-05-08T05:49:12.666Z,66.00
2023-05-08T05:51:39.466Z,66.10
2023-05-08T05:54:06.353Z,66.20
2023-05-08T05:56:33.234Z,66.00
2023-05-08T05:59:00.071Z,65.90
2023-05-08T06:01:29.019Z,65.80
2023-05-08T06:03:56.034Z,65.80
2023-05-08T06:06:23.161Z,65.50
2023-05-08T06:08:49.940Z,65.50
2023-05-08T06:11:17.074Z,65.60
2023-05-08T06:13:44.363Z,65.60
2023-05-08T06:16:11.976Z,65.60
2023-05-08T06:18:39.047Z,65.70
2023-05-08T06:21:06.093Z,65.90
2023-05-08T06:23:33.362Z,65.80
2023-05-08T06:26:00.342Z,65.80
2023-05-08T06:28:27.376Z,65.80
2023-05-08T06:30:54.422Z,65.60
2023-05-08T06:33:21.361Z,65.60
2023-05-08T06:35:48.828Z,65.60
2023-05-08T06:38:16.495Z,65.70
2023-05-08T06:40:46.709Z,65.70
2023-05-08T06:43:14.064Z,65.30
2023-05-08T06:45:41.073Z,65.70
2023-05-08T06:48:08.200Z,65.60
2023-05-08T06:50:39.225Z,65.50
2023-05-08T06:53:07.094Z,65.10
2023-05-08T06:55:35.124Z,65.40
2023-05-08T06:58:02.107Z,65.30
2023-05-08T07:00:29.045Z,65.00
2023-05-08T07:02:56.016Z,64.90
2023-05-08T07:05:23.202Z,64.70
2023-05-08T07:07:50.097Z,64.70
2023-05-08T07:10:19.847Z,64.70
2023-05-08T07:12:46.839Z,64.80
2023-05-08T07:15:25.643Z,64.90
2023-05-08T07:17:53.299Z,64.70
2023-05-08T07:20:21.385Z,64.70
2023-05-08T07:22:48.406Z,64.70
2023-05-08T07:25:16.084Z,64.40
2023-05-08T07:27:43.353Z,64.30
2023-05-08T07:30:11.264Z,64.30
2023-05-08T07:32:39.333Z,64.10
2023-05-08T07:35:10.949Z,64.10
2023-05-08T07:37:41.716Z,64.00
2023-05-08T07:40:09.111Z,63.80
2023-05-08T07:42:44.812Z,64.20
2023-05-08T07:45:14.151Z,62.40
2023-05-08T07:47:57.449Z,63.60
2023-05-08T07:50:26.541Z,61.30
2023-05-08T07:52:53.984Z,63.10
2023-05-08T07:55:21.509Z,62.90
2023-05-08T07:57:48.450Z,62.80
2023-05-08T08:00:16.513Z,62.80
2023-05-08T08:02:45.053Z,62.50
2023-05-08T08:05:12.975Z,62.20
2023-05-08T08:07:40.095Z,62.10
2023-05-08T08:10:08.385Z,62.00
2023-05-08T08:12:35.385Z,61.80
2023-05-08T08:15:02.512Z,61.60
2023-05-08T08:17:29.596Z,61.00
2023-05-08T08:19:57.202Z,61.20
2023-05-08T08:22:26.213Z,61.00
2023-05-08T08:24:55.897Z,60.80
2023-05-08T08:27:23.292Z,61.00
2023-05-08T08:29:52.563Z,61.10
2023-05-08T08:32:25.633Z,61.00
2023-05-08T08:34:52.558Z,61.00
2023-05-08T08:37:19.552Z,60.80
2023-05-08T08:39:48.336Z,60.70
2023-05-08T08:42:15.565Z,60.40
2023-05-08T08:44:42.773Z,60.20
2023-05-08T08:47:14.466Z,60.30
2023-05-08T08:49:49.575Z,60.10
2023-05-08T08:52:32.033Z,58.10
2023-05-08T08:55:03.269Z,57.80
2023-05-08T08:57:35.580Z,59.50
2023-05-08T09:00:05.365Z,58.60
2023-05-08T09:02:32.862Z,58.60
2023-05-08T09:05:00.306Z,58.80
2023-05-08T09:07:27.979Z,58.70
2023-05-08T09:09:55.785Z,58.70
2023-05-08T09:12:22.707Z,58.70
2023-05-08T09:14:51.063Z,58.80
2023-05-08T09:17:17.932Z,58.70
2023-05-08T09:19:45.517Z,58.00
2023-05-08T09:22:13.100Z,57.00
2023-05-08T09:24:57.146Z,57.00
2023-05-08T09:27:27.116Z,54.60
2023-05-08T09:30:08.815Z,56.60
2023-05-08T09:32:40.943Z,55.10
2023-05-08T09:35:10.429Z,57.10
2023-05-08T09:37:47.347Z,57.00
2023-05-08T09:40:18.342Z,55.70
2023-05-08T09:42:46.923Z,56.10
2023-05-08T09:45:29.294Z,55.90
2023-05-08T09:47:56.313Z,53.90
2023-05-08T09:50:24.264Z,56.80
2023-05-08T09:52:51.191Z,56.50
2023-05-08T09:55:18.586Z,55.60
2023-05-08T09:57:59.888Z,55.50
2023-05-08T10:00:29.424Z,52.20
2023-05-08T10:03:02.005Z,54.80
2023-05-08T10:05:32.328Z,52.70
2023-05-08T10:08:18.647Z,53.50
2023-05-08T10:10:46.025Z,53.00
2023-05-08T10:13:13.510Z,53.00
2023-05-08T10:15:43.793Z,52.50
2023-05-08T10:18:14.388Z,51.00
2023-05-08T10:20:46.936Z,51.50
2023-05-08T10:23:19.034Z,50.30
2023-05-08T10:25:48.181Z,48.70
2023-05-08T10:29:06.958Z,49.90
2023-05-08T10:31:40.937Z,47.70
2023-05-08T10:34:13.198Z,48.40
2023-05-08T10:36:40.979Z,50.10
2023-05-08T10:39:08.716Z,50.00
2023-05-08T10:41:37.171Z,49.30
2023-05-08T10:44:05.456Z,48.40
2023-05-08T10:47:03.679Z,48.30
2023-05-08T10:50:06.138Z,46.90
2023-05-08T10:52:57.347Z,48.60
2023-05-08T10:55:33.558Z,46.80
2023-05-08T10:58:29.959Z,46.00
2023-05-08T11:00:59.791Z,47.30
2023-05-08T11:03:33.044Z,47.60
2023-05-08T11:06:01.852Z,46.70
2023-05-08T11:08:31.198Z,48.20
2023-05-08T11:11:06.275Z,47.70
2023-05-08T11:13:36.427Z,46.70
2023-05-08T11:16:06.506Z,46.90
2023-05-08T11:21:15.497Z,46.30
2023-05-08T11:23:42.368Z,45.90
2023-05-08T11:26:16.472Z,46.30
2023-05-08T11:28:58.885Z,45.20
2023-05-08T11:31:53.023Z,44.50
2023-05-08T11:34:41.756Z,45.10
2023-05-08T11:37:24.332Z,46.30
2023-05-08T11:39:51.493Z,45.90
2023-05-08T11:42:27.501Z,47.40
2023-05-08T11:45:13.998Z,45.60
2023-05-08T11:47:44.141Z,45.80
2023-05-08T11:50:13.678Z,48.50
2023-05-08T11:52:43.157Z,47.90
2023-05-08T11:55:12.922Z,48.00
2023-05-08T11:57:39.793Z,47.80
2023-05-08T12:00:10.019Z,48.00
2023-05-08T12:02:46.683Z,47.90
2023-05-08T12:05:13.796Z,48.60
2023-05-08T12:07:48.458Z,49.00
2023-05-08T12:10:17.064Z,48.20
2023-05-08T12:12:45.356Z,49.30
2023-05-08T12:15:15.179Z,49.30
2023-05-08T12:17:42.864Z,49.40
2023-05-08T12:20:18.830Z,49.70
2023-05-08T12:22:53.730Z,48.00
2023-05-08T12:25:20.756Z,48.20
2023-05-08T12:27:47.961Z,49.70
2023-05-08T12:30:16.587Z,49.70
2023-05-08T12:32:44.498Z,49.80
2023-05-08T12:35:13.308Z,49.90
2023-05-08T12:37:40.722Z,49.90
2023-05-08T12:40:22.442Z,49.70
2023-05-08T12:42:51.133Z,49.60
2023-05-08T12:45:34.086Z,49.40
2023-05-08T12:48:04.045Z,47.90
2023-05-08T12:50:40.548Z,49.40
2023-05-08T12:53:10.987Z,48.40
2023-05-08T12:55:39.464Z,49.10
2023-05-08T12:58:15.985Z,49.30
2023-05-08T13:00:49.645Z,49.40
2023-05-08T13:03:27.705Z,49.40
2023-05-08T13:05:58.302Z,48.00
2023-05-08T13:08:37.178Z,48.80
2023-05-08T13:11:06.825Z,49.00
2023-05-08T13:13:36.512Z,49.70
2023-05-08T13:16:07.573Z,49.60
2023-05-08T13:18:36.925Z,48.70
2023-05-08T13:21:04.312Z,49.40
2023-05-08T13:23:31.211Z,49.70
2023-05-08T13:25:58.069Z,50.00
2023-05-08T13:28:24.930Z,50.20
2023-05-08T13:30:51.785Z,50.20
2023-05-08T13:33:18.669Z,50.40
2023-05-08T13:35:45.693Z,50.30
2023-05-08T13:38:12.583Z,50.10
2023-05-08T13:40:39.490Z,50.00
2023-05-08T13:43:06.317Z,49.90
2023-05-08T13:45:33.292Z,49.80
2023-05-08T13:48:00.312Z,49.30
2023-05-08T13:50:27.372Z,49.10
2023-05-08T13:52:55.093Z,49.40
2023-05-08T13:55:23.266Z,49.70
2023-05-08T13:57:50.769Z,49.70
2023-05-08T14:00:18.456Z,49.80
2023-05-08T14:02:45.631Z,50.00
2023-05-08T14:05:13.200Z,50.10
2023-05-08T14:07:40.604Z,50.00
2023-05-08T14:10:08.153Z,49.80
2023-05-08T14:12:36.509Z,50.00
2023-05-08T14:15:08.156Z,49.90
2023-05-08T14:17:35.478Z,49.00
2023-05-08T14:20:02.390Z,49.80
2023-05-08T14:22:29.247Z,49.60
2023-05-08T14:24:56.180Z,49.60
2023-05-08T14:27:23.142Z,49.70
2023-05-08T14:29:50.061Z,49.60
2023-05-08T14:32:16.988Z,49.40
2023-05-08T14:34:44.609Z,49.50
2023-05-08T14:37:12.905Z,49.50
2023-05-08T14:39:39.874Z,49.50
2023-05-08T14:42:21.999Z,49.60
2023-05-08T14:44:50.303Z,49.40
2023-05-08T14:47:17.463Z,49.60
2023-05-08T14:49:44.525Z,49.40
2023-05-08T14:52:11.461Z,49.10
2023-05-08T14:54:38.573Z,49.20
2023-05-08T14:57:05.783Z,49.30
2023-05-08T14:59:32.647Z,49.40
2023-05-08T15:01:59.712Z,49.50
2023-05-08T15:04:26.739Z,49.60
2023-05-08T15:06:53.742Z,49.80
2023-05-08T15:09:20.648Z,49.90
2023-05-08T15:11:47.560Z,50.00
2023-05-08T15:14:14.390Z,50.00
2023-05-08T15:16:41.545Z,50.00
2023-05-08T15:19:09.536Z,49.70
2023-05-08T15:21:36.690Z,50.00
2023-05-08T15:24:03.797Z,50.30
2023-05-08T15:26:30.622Z,50.50
2023-05-08T15:28:57.466Z,50.30
2023-05-08T15:31:24.362Z,50.30
2023-05-08T15:33:51.292Z,50.10
2023-05-08T15:36:18.201Z,49.60
2023-05-08T15:38:45.180Z,50.00
2023-05-08T15:41:15.123Z,50.10
2023-05-08T15:43:45.130Z,50.30
2023-05-08T15:46:12.269Z,50.60
2023-05-08T15:48:39.485Z,51.10
2023-05-08T15:51:06.377Z,51.00
2023-05-08T15:53:34.400Z,51.20
2023-05-08T15:56:01.424Z,51.10
2023-05-08T15:58:28.515Z,51.20
2023-05-08T16:00:56.860Z,51.30
2023-05-08T16:03:24.467Z,51.10
2023-05-08T16:05:51.661Z,51.10
2023-05-08T16:08:18.687Z,51.30
2023-05-08T16:10:45.707Z,51.20
2023-05-08T16:13:12.804Z,51.50
2023-05-08T16:15:40.072Z,51.60
2023-05-08T16:18:07.850Z,51.70
2023-05-08T16:20:36.017Z,51.40
2023-05-08T16:23:03.406Z,51.00
2023-05-08T16:25:30.442Z,50.60
2023-05-08T16:27:57.353Z,50.70
2023-05-08T16:30:24.292Z,50.80
2023-05-08T16:32:51.595Z,50.60
2023-05-08T16:35:19.699Z,50.40
2023-05-08T16:37:46.968Z,50.00
2023-05-08T16:40:14.219Z,49.70
2023-05-08T16:42:41.452Z,49.80
2023-05-08T16:45:09.120Z,50.00
2023-05-08T16:47:36.479Z,50.00
2023-05-08T16:50:05.355Z,50.30
2023-05-08T16:52:35.363Z,50.20
2023-05-08T16:55:02.283Z,50.40
2023-05-08T16:57:30.613Z,50.40
2023-05-08T16:59:57.602Z,50.60
2023-05-08T17:02:24.653Z,50.80
2023-05-08T17:04:51.811Z,51.40
2023-05-08T17:07:18.689Z,51.60
2023-05-08T17:09:48.417Z,52.10
2023-05-08T17:12:15.352Z,52.30
2023-05-08T17:14:42.760Z,52.50
2023-05-08T17:17:09.679Z,52.60
2023-05-08T17:19:36.689Z,52.80
2023-05-08T17:22:05.170Z,53.00
2023-05-08T17:24:32.779Z,53.70
2023-05-08T17:26:59.851Z,53.50
2023-05-08T17:29:26.950Z,53.70
2023-05-08T17:31:53.931Z,54.00
2023-05-08T17:34:22.864Z,54.20
2023-05-08T17:36:50.097Z,54.40
2023-05-08T17:39:21.678Z,54.60
2023-05-08T17:41:49.517Z,54.80
2023-05-08T17:44:17.492Z,54.90
2023-05-08T17:46:45.251Z,54.90
2023-05-08T17:49:13.048Z,54.90
2023-05-08T17:51:41.408Z,55.10
2023-05-08T17:54:08.603Z,55.20
2023-05-08T17:56:36.170Z,55.50
2023-05-08T17:59:03.223Z,55.40
2023-05-08T18:01:30.291Z,55.40
2023-05-08T18:03:57.188Z,55.60
2023-05-08T18:06:24.285Z,55.60
2023-05-08T18:08:51.220Z,55.50
2023-05-08T18:11:24.962Z,55.70
2023-05-08T18:13:53.863Z,55.60
2023-05-08T18:16:22.256Z,55.60
2023-05-08T18:18:50.073Z,55.70
2023-05-08T18:21:17.030Z,55.90
2023-05-08T18:23:44.314Z,56.00
2023-05-08T18:26:15.455Z,56.00
2023-05-08T18:28:43.534Z,55.90
2023-05-08T18:31:11.753Z,56.00
2023-05-08T18:33:39.079Z,56.00
2023-05-08T18:36:07.304Z,56.10
2023-05-08T18:38:34.916Z,56.10
2023-05-08T18:41:03.937Z,56.20
2023-05-08T18:43:30.944Z,56.80
2023-05-08T18:45:59.027Z,56.40
2023-05-08T18:48:26.438Z,56.60
2023-05-08T18:50:55.849Z,56.50
2023-05-08T18:53:22.716Z,56.50
2023-05-08T18:55:49.657Z,56.50
2023-05-08T18:58:16.601Z,56.60
2023-05-08T19:00:43.572Z,56.70
2023-05-08T19:03:10.819Z,56.80
2023-05-08T19:05:37.892Z,57.00
2023-05-08T19:08:05.002Z,57.10
2023-05-08T19:10:32.024Z,57.20
2023-05-08T19:13:02.052Z,57.10
2023-05-08T19:15:29.352Z,57.20
2023-05-08T19:17:56.449Z,57.10
2023-05-08T19:20:23.663Z,56.90
2023-05-08T19:22:50.587Z,56.80
2023-05-08T19:25:17.827Z,56.80
2023-05-08T19:27:45.185Z,57.10
2023-05-08T19:30:12.930Z,57.20
2023-05-08T19:32:40.140Z,57.20
2023-05-08T19:35:08.373Z,57.30
2023-05-08T19:37:35.931Z,57.30
2023-05-08T19:40:08.943Z,57.30
2023-05-08T19:42:35.963Z,57.10
2023-05-08T19:45:03.042Z,57.30
2023-05-08T19:47:29.980Z,57.30
2023-05-08T19:49:57.021Z,57.30
2023-05-08T19:52:23.980Z,57.30
2023-05-08T19:54:53.968Z,57.40
2023-05-08T19:57:21.276Z,57.60
2023-05-08T19:59:51.133Z,57.80
2023-05-08T20:02:20.226Z,57.80
2023-05-08T20:05:14.504Z,57.90
2023-05-08T20:07:38.893Z,58.00
2023-05-08T20:10:06.891Z,58.10
2023-05-08T20:12:33.898Z,58.40
2023-05-08T20:15:00.916Z,58.50
2023-05-08T20:17:39.955Z,58.60
2023-05-08T20:20:07.898Z,58.40
2023-05-08T20:22:34.937Z,58.70
2023-05-08T20:25:04.513Z,58.80
2023-05-08T20:27:31.773Z,58.90
2023-05-08T20:30:22.814Z,59.10
2023-05-08T20:32:50.601Z,58.50
2023-05-08T20:35:17.529Z,58.90
2023-05-08T20:37:49.276Z,58.90
2023-05-08T20:40:16.546Z,58.80
2023-05-08T20:42:43.651Z,59.10
2023-05-08T20:45:11.427Z,59.20
2023-05-08T20:47:38.558Z,59.30
2023-05-08T20:50:06.635Z,59.30
2023-05-08T20:52:35.147Z,59.40
2023-05-08T20:55:03.329Z,59.50
2023-05-08T20:57:30.240Z,59.50
2023-05-08T20:59:57.137Z,59.50
2023-05-08T21:02:24.089Z,59.60
2023-05-08T21:04:51.649Z,59.50
2023-05-08T21:07:18.553Z,59.50
2023-05-08T21:09:47.776Z,59.40
2023-05-08T21:12:14.828Z,59.30
2023-05-08T21:14:43.946Z,59.30
2023-05-08T21:17:10.808Z,59.40
2023-05-08T21:19:38.085Z,59.40
2023-05-08T21:22:04.986Z,60.00
2023-05-08T21:24:31.819Z,59.60
2023-05-08T21:26:59.722Z,59.60
2023-05-08T21:29:26.766Z,59.70
2023-05-08T21:31:53.677Z,59.70
2023-05-08T21:34:21.502Z,59.70
2023-05-08T21:36:48.400Z,59.70
2023-05-08T21:39:15.438Z,59.60
2023-05-08T21:41:46.382Z,59.50
2023-05-08T21:44:13.196Z,59.30
2023-05-08T21:46:40.106Z,59.40
2023-05-08T21:49:07.016Z,59.40
2023-05-08T21:51:33.865Z,59.40
2023-05-08T21:54:00.749Z,59.30
2023-05-08T21:56:27.564Z,59.20
2023-05-08T21:58:55.569Z,59.20
2023-05-08T22:01:22.504Z,59.10
2023-05-08T22:03:49.509Z,59.10
2023-05-08T22:06:16.704Z,59.00
2023-05-08T22:08:43.552Z,59.00
2023-05-08T22:11:10.396Z,59.00
2023-05-08T22:13:37.261Z,59.10
2023-05-08T22:16:04.640Z,59.10
2023-05-08T22:18:31.454Z,59.10
2023-05-08T22:20:58.514Z,59.10
2023-05-08T22:23:25.904Z,59.00
2023-05-08T22:25:52.785Z,59.00
2023-05-08T22:28:19.610Z,59.00
2023-05-08T22:30:46.508Z,59.00
2023-05-08T22:33:13.361Z,59.10
2023-05-08T22:35:40.240Z,59.10
2023-05-08T22:38:07.120Z,59.20
2023-05-08T22:40:34.293Z,59.20
2023-05-08T22:43:01.752Z,59.30
2023-05-08T22:45:29.057Z,59.40
2023-05-08T22:47:56.311Z,59.50
2023-05-08T22:50:23.254Z,59.40
2023-05-08T22:52:50.185Z,59.40
2023-05-08T22:55:17.241Z,59.40
2023-05-08T22:57:44.328Z,59.60
2023-05-08T23:00:12.379Z,59.60
2023-05-08T23:02:39.818Z,59.70
2023-05-08T23:05:07.745Z,59.70
2023-05-08T23:07:34.598Z,59.80
2023-05-08T23:10:01.520Z,59.90
2023-05-08T23:12:28.381Z,60.00
2023-05-08T23:14:55.715Z,60.00
2023-05-08T23:17:22.893Z,60.00
2023-05-08T23:19:49.714Z,60.00
2023-05-08T23:22:16.580Z,60.10
2023-05-08T23:24:43.651Z,60.10
2023-05-08T23:27:10.623Z,60.20
2023-05-08T23:29:37.481Z,60.20
2023-05-08T23:32:04.467Z,60.30
2023-05-08T23:34:31.312Z,60.30
2023-05-08T23:36:58.223Z,60.40
2023-05-08T23:39:25.206Z,60.50
2023-05-08T23:41:52.000Z,60.50
2023-05-08T23:44:19.148Z,60.60
2023-05-08T23:46:46.377Z,60.60
2023-05-08T23:49:13.341Z,60.70
2023-05-08T23:51:42.943Z,60.70
2023-05-08T23:54:09.797Z,61.30
2023-05-08T23:56:36.618Z,60.90
2023-05-08T23:59:03.423Z,60.90
